sensor_id;sensor_type;location;lat;lon;timestamp;pressure;altitude;pressure_sealevel;temperature;humidity
33404;BME280;19751;40.274;18.268;2023-04-03T00:00:38;100077.75;;;13.04;100.00
33404;BME280;19751;40.274;18.268;2023-04-03T00:03:04;100066.78;;;12.99;100.00
33404;BME280;19751;40.274;18.268;2023-04-03T00:05:29;100065.56;;;12.94;100.00
33404;BME280;19751;40.274;18.268;2023-04-03T00:07:55;100069.91;;;12.96;100.00
33404;BME280;19751;40.274;18.268;2023-04-03T00:10:20;100060.53;;;12.98;100.00
33404;BME280;19751;40.274;18.268;2023-04-03T00:12:46;100062.19;;;12.99;100.00
33404;BME280;19751;40.274;18.268;2023-04-03T00:15:12;100054.06;;;12.99;100.00
33404;BME280;19751;40.274;18.268;2023-04-03T00:17:38;100048.66;;;12.99;100.00
33404;BME280;19751;40.274;18.268;2023-04-03T00:20:04;100047.22;;;12.97;100.00
33404;BME280;19751;40.274;18.268;2023-04-03T00:22:30;100039.13;;;12.97;100.00
33404;BME280;19751;40.274;18.268;2023-04-03T00:24:55;100027.47;;;12.96;100.00
33404;BME280;19751;40.274;18.268;2023-04-03T00:27:21;100018.78;;;12.94;100.00
33404;BME280;19751;40.274;18.268;2023-04-03T00:29:46;100014.63;;;12.91;100.00
33404;BME280;19751;40.274;18.268;2023-04-03T00:32:12;100011.31;;;12.89;100.00
33404;BME280;19751;40.274;18.268;2023-04-03T00:34:38;100005.09;;;12.89;100.00
33404;BME280;19751;40.274;18.268;2023-04-03T00:37:04;100006.53;;;12.91;100.00
33404;BME280;19751;40.274;18.268;2023-04-03T00:39:30;99996.78;;;12.90;100.00
33404;BME280;19751;40.274;18.268;2023-04-03T00:41:55;99993.25;;;12.90;100.00
33404;BME280;19751;40.274;18.268;2023-04-03T00:45:22;99974.97;;;12.85;100.00
33404;BME280;19751;40.274;18.268;2023-04-03T00:47:13;99976.03;;;12.84;100.00
33404;BME280;19751;40.274;18.268;2023-04-03T00:49:41;99964.81;;;12.81;100.00
33404;BME280;19751;40.274;18.268;2023-04-03T00:52:11;99954.25;;;12.79;100.00
33404;BME280;19751;40.274;18.268;2023-04-03T00:54:38;99950.94;;;12.77;100.00
33404;BME280;19751;40.274;18.268;2023-04-03T00:57:06;99950.94;;;12.77;100.00
33404;BME280;19751;40.274;18.268;2023-04-03T00:59:35;99940.75;;;12.79;100.00
33404;BME280;19751;40.274;18.268;2023-04-03T01:02:04;99929.69;;;12.81;100.00
33404;BME280;19751;40.274;18.268;2023-04-03T01:04:33;99928.44;;;12.83;100.00
33404;BME280;19751;40.274;18.268;2023-04-03T01:07:07;99918.00;;;12.87;100.00
33404;BME280;19751;40.274;18.268;2023-04-03T01:09:34;99915.69;;;12.90;100.00
33404;BME280;19751;40.274;18.268;2023-04-03T01:12:22;99909.59;;;12.95;100.00
33404;BME280;19751;40.274;18.268;2023-04-03T01:14:51;99898.56;;;12.97;100.00
33404;BME280;19751;40.274;18.268;2023-04-03T01:17:35;99898.94;;;13.00;100.00
33404;BME280;19751;40.274;18.268;2023-04-03T01:22:41;99894.28;;;13.07;100.00
33404;BME280;19751;40.274;18.268;2023-04-03T01:25:09;99892.97;;;13.10;100.00
33404;BME280;19751;40.274;18.268;2023-04-03T01:27:35;99885.03;;;13.15;100.00
33404;BME280;19751;40.274;18.268;2023-04-03T01:30:00;99875.44;;;13.19;100.00
33404;BME280;19751;40.274;18.268;2023-04-03T01:32:26;99872.06;;;13.24;100.00
33404;BME280;19751;40.274;18.268;2023-04-03T01:34:51;99864.53;;;13.26;100.00
33404;BME280;19751;40.274;18.268;2023-04-03T01:37:17;99857.84;;;13.28;100.00
33404;BME280;19751;40.274;18.268;2023-04-03T01:39:43;99858.69;;;13.29;100.00
33404;BME280;19751;40.274;18.268;2023-04-03T01:42:09;99844.09;;;13.30;100.00
33404;BME280;19751;40.274;18.268;2023-04-03T01:44:35;99844.47;;;13.33;100.00
33404;BME280;19751;40.274;18.268;2023-04-03T01:47:01;99839.06;;;13.33;100.00
33404;BME280;19751;40.274;18.268;2023-04-03T01:49:26;99837.31;;;13.39;100.00
33404;BME280;19751;40.274;18.268;2023-04-03T01:51:52;99829.78;;;13.41;100.00
33404;BME280;19751;40.274;18.268;2023-04-03T01:54:18;99820.38;;;13.43;100.00
33404;BME280;19751;40.274;18.268;2023-04-03T01:56:43;99819.56;;;13.43;100.00
33404;BME280;19751;40.274;18.268;2023-04-03T01:59:09;99810.16;;;13.46;100.00
33404;BME280;19751;40.274;18.268;2023-04-03T02:01:34;99806.19;;;13.48;100.00
33404;BME280;19751;40.274;18.268;2023-04-03T02:04:00;99804.06;;;13.50;100.00
33404;BME280;19751;40.274;18.268;2023-04-03T02:06:25;99786.75;;;13.51;100.00
33404;BME280;19751;40.274;18.268;2023-04-03T02:08:51;99792.31;;;13.56;100.00
33404;BME280;19751;40.274;18.268;2023-04-03T02:11:16;99788.31;;;13.59;100.00
33404;BME280;19751;40.274;18.268;2023-04-03T02:13:42;99791.63;;;13.61;100.00
33404;BME280;19751;40.274;18.268;2023-04-03T02:16:09;99777.59;;;13.64;100.00
33404;BME280;19751;40.274;18.268;2023-04-03T02:18:35;99778.22;;;13.66;100.00
33404;BME280;19751;40.274;18.268;2023-04-03T02:21:00;99766.56;;;13.65;100.00
33404;BME280;19751;40.274;18.268;2023-04-03T02:23:26;99768.56;;;13.70;100.00
33404;BME280;19751;40.274;18.268;2023-04-03T02:25:52;99765.63;;;13.72;100.00
33404;BME280;19751;40.274;18.268;2023-04-03T02:28:17;99766.22;;;13.74;100.00
33404;BME280;19751;40.274;18.268;2023-04-03T02:30:42;99758.94;;;13.74;100.00
33404;BME280;19751;40.274;18.268;2023-04-03T02:33:08;99758.94;;;13.74;100.00
33404;BME280;19751;40.274;18.268;2023-04-03T02:35:33;99749.75;;;13.75;100.00
33404;BME280;19751;40.274;18.268;2023-04-03T02:37:59;99745.75;;;13.78;100.00
33404;BME280;19751;40.274;18.268;2023-04-03T02:40:24;99747.97;;;13.81;100.00
33404;BME280;19751;40.274;18.268;2023-04-03T02:42:50;99736.69;;;13.84;100.00
33404;BME280;19751;40.274;18.268;2023-04-03T02:45:15;99747.06;;;13.87;100.00
33404;BME280;19751;40.274;18.268;2023-04-03T02:47:41;99745.78;;;13.89;100.00
33404;BME280;19751;40.274;18.268;2023-04-03T02:50:07;99744.72;;;13.90;100.00
33404;BME280;19751;40.274;18.268;2023-04-03T02:52:32;99738.22;;;13.91;100.00
33404;BME280;19751;40.274;18.268;2023-04-03T02:54:58;99738.81;;;13.93;100.00
33404;BME280;19751;40.274;18.268;2023-04-03T02:57:23;99728.56;;;13.96;100.00
33404;BME280;19751;40.274;18.268;2023-04-03T02:59:49;99725.88;;;13.96;100.00
33404;BME280;19751;40.274;18.268;2023-04-03T03:02:14;99717.50;;;13.97;100.00
33404;BME280;19751;40.274;18.268;2023-04-03T03:04:39;99713.75;;;13.98;100.00
33404;BME280;19751;40.274;18.268;2023-04-03T03:07:05;99708.34;;;13.98;100.00
33404;BME280;19751;40.274;18.268;2023-04-03T03:09:31;99701.84;;;13.99;100.00
33404;BME280;19751;40.274;18.268;2023-04-03T03:11:57;99702.66;;;14.00;100.00
33404;BME280;19751;40.274;18.268;2023-04-03T03:14:23;99696.19;;;14.01;100.00
33404;BME280;19751;40.274;18.268;2023-04-03T03:16:48;99695.97;;;14.02;100.00
33404;BME280;19751;40.274;18.268;2023-04-03T03:19:14;99694.91;;;14.03;100.00
33404;BME280;19751;40.274;18.268;2023-04-03T03:21:40;99687.59;;;14.04;100.00
33404;BME280;19751;40.274;18.268;2023-04-03T03:24:06;99687.59;;;14.04;100.00
33404;BME280;19751;40.274;18.268;2023-04-03T03:26:31;99681.13;;;14.05;100.00
33404;BME280;19751;40.274;18.268;2023-04-03T03:28:57;99672.19;;;14.04;100.00
33404;BME280;19751;40.274;18.268;2023-04-03T03:31:22;99670.53;;;14.03;100.00
33404;BME280;19751;40.274;18.268;2023-04-03T03:33:48;99667.00;;;14.03;100.00
33404;BME280;19751;40.274;18.268;2023-04-03T03:36:13;99664.06;;;14.04;100.00
33404;BME280;19751;40.274;18.268;2023-04-03T03:38:39;99669.22;;;14.06;100.00
33404;BME280;19751;40.274;18.268;2023-04-03T03:41:04;99673.81;;;14.05;100.00
33404;BME280;19751;40.274;18.268;2023-04-03T03:43:30;99673.59;;;14.07;100.00
33404;BME280;19751;40.274;18.268;2023-04-03T03:45:55;99666.03;;;14.09;100.00
33404;BME280;19751;40.274;18.268;2023-04-03T03:48:21;99658.75;;;14.09;100.00
33404;BME280;19751;40.274;18.268;2023-04-03T03:50:47;99655.47;;;14.07;100.00
33404;BME280;19751;40.274;18.268;2023-04-03T03:53:13;99643.81;;;14.07;100.00
33404;BME280;19751;40.274;18.268;2023-04-03T03:55:38;99644.03;;;14.05;100.00
33404;BME280;19751;40.274;18.268;2023-04-03T03:58:04;99644.28;;;14.04;100.00
33404;BME280;19751;40.274;18.268;2023-04-03T04:00:29;99645.91;;;14.05;100.00
33404;BME280;19751;40.274;18.268;2023-04-03T04:02:55;99644.03;;;14.05;100.00
33404;BME280;19751;40.274;18.268;2023-04-03T04:05:21;99646.75;;;14.05;100.00
33404;BME280;19751;40.274;18.268;2023-04-03T04:07:46;99651.13;;;14.06;100.00
33404;BME280;19751;40.274;18.268;2023-04-03T04:10:12;99646.28;;;14.08;100.00
33404;BME280;19751;40.274;18.268;2023-04-03T04:12:39;99650.63;;;14.09;100.00
33404;BME280;19751;40.274;18.268;2023-04-03T04:15:05;99657.09;;;14.08;100.00
33404;BME280;19751;40.274;18.268;2023-04-03T04:17:30;99648.41;;;14.06;100.00
33404;BME280;19751;40.274;18.268;2023-04-03T04:19:56;99645.91;;;14.05;100.00
33404;BME280;19751;40.274;18.268;2023-04-03T04:22:21;99641.56;;;14.04;100.00
33404;BME280;19751;40.274;18.268;2023-04-03T04:24:47;99636.63;;;14.01;100.00
33404;BME280;19751;40.274;18.268;2023-04-03T04:27:12;99631.72;;;13.98;100.00
33404;BME280;19751;40.274;18.268;2023-04-03T04:29:38;99621.56;;;13.93;100.00
33404;BME280;19751;40.274;18.268;2023-04-03T04:32:03;99617.47;;;13.90;100.00
33404;BME280;19751;40.274;18.268;2023-04-03T04:34:29;99621.47;;;13.88;100.00
33404;BME280;19751;40.274;18.268;2023-04-03T04:36:55;99608.91;;;13.82;100.00
33404;BME280;19751;40.274;18.268;2023-04-03T04:39:20;99604.22;;;13.77;100.00
33404;BME280;19751;40.274;18.268;2023-04-03T04:41:46;99603.59;;;13.75;100.00
33404;BME280;19751;40.274;18.268;2023-04-03T04:44:11;99581.13;;;13.75;100.00
33404;BME280;19751;40.274;18.268;2023-04-03T04:46:37;99578.44;;;13.75;100.00
33404;BME280;19751;40.274;18.268;2023-04-03T04:49:02;99577.63;;;13.74;100.00
33404;BME280;19751;40.274;18.268;2023-04-03T04:51:28;99565.72;;;13.75;100.00
33404;BME280;19751;40.274;18.268;2023-04-03T04:53:53;99565.72;;;13.75;100.00
33404;BME280;19751;40.274;18.268;2023-04-03T04:56:18;99566.53;;;13.76;100.00
33404;BME280;19751;40.274;18.268;2023-04-03T04:58:44;99548.66;;;13.75;100.00
33404;BME280;19751;40.274;18.268;2023-04-03T05:01:10;99546.78;;;13.75;100.00
33404;BME280;19751;40.274;18.268;2023-04-03T05:03:36;99538.66;;;13.75;100.00
33404;BME280;19751;40.274;18.268;2023-04-03T05:06:03;99546.22;;;13.73;100.00
33404;BME280;19751;40.274;18.268;2023-04-03T05:08:29;99534.53;;;13.73;100.00
33404;BME280;19751;40.274;18.268;2023-04-03T05:10:54;99535.84;;;13.70;100.00
33404;BME280;19751;40.274;18.268;2023-04-03T05:13:20;99539.13;;;13.72;100.00
33404;BME280;19751;40.274;18.268;2023-04-03T05:15:46;99542.19;;;13.76;100.00
33404;BME280;19751;40.274;18.268;2023-04-03T05:18:13;99539.81;;;13.79;100.00
33404;BME280;19751;40.274;18.268;2023-04-03T05:20:39;99542.28;;;13.81;100.00
33404;BME280;19751;40.274;18.268;2023-04-03T05:23:05;99539.34;;;13.82;100.00
33404;BME280;19751;40.274;18.268;2023-04-03T05:25:30;99543.22;;;13.86;100.00
33404;BME280;19751;40.274;18.268;2023-04-03T05:27:56;99543.78;;;13.88;100.00
33404;BME280;19751;40.274;18.268;2023-04-03T05:30:22;99543.31;;;13.91;100.00
33404;BME280;19751;40.274;18.268;2023-04-03T05:32:48;99541.22;;;13.93;100.00
33404;BME280;19751;40.274;18.268;2023-04-03T05:35:13;99544.47;;;13.96;100.00
33404;BME280;19751;40.274;18.268;2023-04-03T05:37:39;99533.66;;;13.96;100.00
33404;BME280;19751;40.274;18.268;2023-04-03T05:40:05;99538.25;;;13.95;100.00
33404;BME280;19751;40.274;18.268;2023-04-03T05:42:31;99536.38;;;13.96;100.00
33404;BME280;19751;40.274;18.268;2023-04-03T05:44:57;99534.72;;;13.95;100.00
33404;BME280;19751;40.274;18.268;2023-04-03T05:47:22;99533.66;;;13.96;100.00
33404;BME280;19751;40.274;18.268;2023-04-03T05:49:49;99531.53;;;13.98;100.00
33404;BME280;19751;40.274;18.268;2023-04-03T05:52:28;99528.00;;;13.97;100.00
33404;BME280;19751;40.274;18.268;2023-04-03T05:54:54;99519.88;;;13.97;100.00
33404;BME280;19751;40.274;18.268;2023-04-03T05:57:20;99519.66;;;13.99;100.00
33404;BME280;19751;40.274;18.268;2023-04-03T05:59:46;99524.25;;;13.98;100.00
33404;BME280;19751;40.274;18.268;2023-04-03T06:02:21;99520.94;;;13.96;100.00
33404;BME280;19751;40.274;18.268;2023-04-03T06:04:47;99508.47;;;13.95;100.00
33404;BME280;19751;40.274;18.268;2023-04-03T06:07:21;99496.00;;;13.94;100.00
33404;BME280;19751;40.274;18.268;2023-04-03T06:09:48;99494.94;;;13.95;100.00
33404;BME280;19751;40.274;18.268;2023-04-03T06:12:14;99496.81;;;13.95;100.00
33404;BME280;19751;40.274;18.268;2023-04-03T06:14:40;99507.88;;;13.93;100.00
33404;BME280;19751;40.274;18.268;2023-04-03T06:17:06;99482.34;;;13.89;100.00
33404;BME280;19751;40.274;18.268;2023-04-03T06:19:33;99486.94;;;13.88;100.00
33404;BME280;19751;40.274;18.268;2023-04-03T06:21:59;99482.59;;;13.87;100.00
33404;BME280;19751;40.274;18.268;2023-04-03T06:24:24;99488.03;;;13.87;100.00
33404;BME280;19751;40.274;18.268;2023-04-03T06:26:52;99499.66;;;13.88;100.00
33404;BME280;19751;40.274;18.268;2023-04-03T06:29:18;99513.44;;;13.86;100.00
33404;BME280;19751;40.274;18.268;2023-04-03T06:31:45;99510.75;;;13.86;100.00
33404;BME280;19751;40.274;18.268;2023-04-03T06:34:10;99508.03;;;13.86;100.00
33404;BME280;19751;40.274;18.268;2023-04-03T06:36:38;99505.91;;;13.88;100.00
33404;BME280;19751;40.274;18.268;2023-04-03T06:39:05;99505.69;;;13.90;100.00
33404;BME280;19751;40.274;18.268;2023-04-03T06:41:31;99501.91;;;13.91;100.00
33404;BME280;19751;40.274;18.268;2023-04-03T06:43:56;99496.81;;;13.95;100.00
33404;BME280;19751;40.274;18.268;2023-04-03T06:46:25;99487.88;;;13.94;100.00
33404;BME280;19751;40.274;18.268;2023-04-03T06:48:51;99486.00;;;13.95;100.00
33404;BME280;19751;40.274;18.268;2023-04-03T06:51:25;99494.94;;;13.95;100.00
33404;BME280;19751;40.274;18.268;2023-04-03T06:53:55;99484.38;;;13.93;100.00
33404;BME280;19751;40.274;18.268;2023-04-03T06:56:21;99484.38;;;13.93;100.00
33404;BME280;19751;40.274;18.268;2023-04-03T06:58:47;99482.47;;;13.94;100.00
33404;BME280;19751;40.274;18.268;2023-04-03T07:01:16;99482.22;;;13.96;100.00
33404;BME280;19751;40.274;18.268;2023-04-03T07:03:43;99488.44;;;13.96;100.00
33404;BME280;19751;40.274;18.268;2023-04-03T07:06:11;99493.66;;;13.98;100.00
33404;BME280;19751;40.274;18.268;2023-04-03T07:08:37;99495.84;;;14.01;100.00
33404;BME280;19751;40.274;18.268;2023-04-03T07:11:03;99480.19;;;14.03;100.00
33404;BME280;19751;40.274;18.268;2023-04-03T07:13:29;99480.75;;;14.05;100.00
33404;BME280;19751;40.274;18.268;2023-04-03T07:15:55;99478.06;;;14.05;100.00
33404;BME280;19751;40.274;18.268;2023-04-03T07:18:20;99475.13;;;14.06;100.00
33404;BME280;19751;40.274;18.268;2023-04-03T07:20:46;99464.50;;;14.05;100.00
33404;BME280;19751;40.274;18.268;2023-04-03T07:23:12;99470.75;;;14.05;100.00
33404;BME280;19751;40.274;18.268;2023-04-03T07:25:43;99469.94;;;14.05;100.00
33404;BME280;19751;40.274;18.268;2023-04-03T07:28:09;99468.84;;;14.06;100.00
33404;BME280;19751;40.274;18.268;2023-04-03T07:30:34;99467.47;;;14.03;100.00
33404;BME280;19751;40.274;18.268;2023-04-03T07:33:00;99472.91;;;14.03;100.00
33404;BME280;19751;40.274;18.268;2023-04-03T07:35:26;99465.59;;;14.04;100.00
33404;BME280;19751;40.274;18.268;2023-04-03T07:37:52;99460.44;;;14.02;100.00
33404;BME280;19751;40.274;18.268;2023-04-03T07:40:18;99476.66;;;14.02;100.00
33404;BME280;19751;40.274;18.268;2023-04-03T07:42:44;99470.44;;;14.02;100.00
33404;BME280;19751;40.274;18.268;2023-04-03T07:45:10;99469.03;;;13.99;100.00
33404;BME280;19751;40.274;18.268;2023-04-03T07:47:35;99468.69;;;13.96;100.00
33404;BME280;19751;40.274;18.268;2023-04-03T07:50:01;99459.66;;;13.90;100.00
33404;BME280;19751;40.274;18.268;2023-04-03T07:52:27;99468.00;;;13.88;100.00
33404;BME280;19751;40.274;18.268;2023-04-03T07:54:52;99472.03;;;13.86;100.00
33404;BME280;19751;40.274;18.268;2023-04-03T07:57:17;99477.66;;;13.84;100.00
33404;BME280;19751;40.274;18.268;2023-04-03T07:59:43;99477.66;;;13.84;100.00
33404;BME280;19751;40.274;18.268;2023-04-03T08:02:12;99460.63;;;13.84;100.00
33404;BME280;19751;40.274;18.268;2023-04-03T08:04:38;99466.28;;;13.82;100.00
33404;BME280;19751;40.274;18.268;2023-04-03T08:07:04;99462.97;;;13.80;100.00
33404;BME280;19751;40.274;18.268;2023-04-03T08:09:30;99466.75;;;13.79;100.00
33404;BME280;19751;40.274;18.268;2023-04-03T08:11:57;99465.13;;;13.78;100.00
33404;BME280;19751;40.274;18.268;2023-04-03T08:14:22;99463.94;;;13.74;100.00
33404;BME280;19751;40.274;18.268;2023-04-03T08:16:48;99461.25;;;13.74;100.00
33404;BME280;19751;40.274;18.268;2023-04-03T08:19:14;99461.25;;;13.74;100.00
33404;BME280;19751;40.274;18.268;2023-04-03T08:21:42;99473.97;;;13.74;100.00
33404;BME280;19751;40.274;18.268;2023-04-03T08:24:08;99472.06;;;13.74;100.00
33404;BME280;19751;40.274;18.268;2023-04-03T08:26:34;99468.78;;;13.72;100.00
33404;BME280;19751;40.274;18.268;2023-04-03T08:29:00;99460.91;;;13.71;100.00
33404;BME280;19751;40.274;18.268;2023-04-03T08:31:26;99467.13;;;13.71;100.00
33404;BME280;19751;40.274;18.268;2023-04-03T08:33:52;99461.97;;;13.70;100.00
33404;BME280;19751;40.274;18.268;2023-04-03T08:36:28;99463.03;;;13.68;100.00
33404;BME280;19751;40.274;18.268;2023-04-03T08:38:55;99450.56;;;13.67;100.00
33404;BME280;19751;40.274;18.268;2023-04-03T08:41:40;99462.44;;;13.66;100.00
33404;BME280;19751;40.274;18.268;2023-04-03T08:49:10;99420.00;;;13.55;100.00
33404;BME280;19751;40.274;18.268;2023-04-03T08:51:40;99417.69;;;13.47;100.00
33404;BME280;19751;40.274;18.268;2023-04-03T08:54:24;99414.06;;;13.41;100.00
33404;BME280;19751;40.274;18.268;2023-04-03T08:56:52;99422.66;;;13.38;100.00
33404;BME280;19751;40.274;18.268;2023-04-03T08:59:26;99413.16;;;13.36;100.00
33404;BME280;19751;40.274;18.268;2023-04-03T09:01:53;99413.88;;;13.31;100.00
33404;BME280;19751;40.274;18.268;2023-04-03T09:04:19;99411.06;;;13.26;100.00
33404;BME280;19751;40.274;18.268;2023-04-03T09:06:58;99428.34;;;13.25;100.00
33404;BME280;19751;40.274;18.268;2023-04-03T09:09:35;99427.78;;;13.23;100.00
33404;BME280;19751;40.274;18.268;2023-04-03T09:20:17;99413.75;;;13.14;100.00
33404;BME280;19751;40.274;18.268;2023-04-03T09:22:45;99409.66;;;13.12;100.00
33404;BME280;19751;40.274;18.268;2023-04-03T09:25:17;99410.47;;;13.12;100.00
33404;BME280;19751;40.274;18.268;2023-04-03T09:27:44;99407.16;;;13.10;100.00
33404;BME280;19751;40.274;18.268;2023-04-03T09:30:16;99406.34;;;13.10;100.00
33404;BME280;19751;40.274;18.268;2023-04-03T09:32:45;99398.84;;;13.12;100.00
33404;BME280;19751;40.274;18.268;2023-04-03T09:35:21;99408.59;;;13.13;100.00
33404;BME280;19751;40.274;18.268;2023-04-03T09:37:53;99431.28;;;13.12;100.00
33404;BME280;19751;40.274;18.268;2023-04-03T09:43:02;99434.91;;;13.17;100.00
33404;BME280;19751;40.274;18.268;2023-04-03T09:45:35;99442.81;;;13.19;100.00
33404;BME280;19751;40.274;18.268;2023-04-03T09:48:15;99445.00;;;13.22;100.00
33404;BME280;19751;40.274;18.268;2023-04-03T09:53:41;99432.69;;;13.26;100.00
33404;BME280;19751;40.274;18.268;2023-04-03T09:58:49;99423.75;;;13.26;100.00
33404;BME280;19751;40.274;18.268;2023-04-03T10:01:26;99425.38;;;13.27;100.00
33404;BME280;19751;40.274;18.268;2023-04-03T10:06:35;99413.38;;;13.34;100.00
33404;BME280;19751;40.274;18.268;2023-04-03T10:09:04;99397.75;;;13.36;100.00
33404;BME280;19751;40.274;18.268;2023-04-03T10:11:30;99401.03;;;13.38;100.00
33404;BME280;19751;40.274;18.268;2023-04-03T10:14:02;99399.94;;;13.39;100.00
33404;BME280;19751;40.274;18.268;2023-04-03T10:16:38;99408.91;;;13.40;100.00
33404;BME280;19751;40.274;18.268;2023-04-03T10:21:52;99399.13;;;13.39;100.00
33404;BME280;19751;40.274;18.268;2023-04-03T10:24:25;99412.66;;;13.39;100.00
33404;BME280;19751;40.274;18.268;2023-04-03T10:27:49;99405.63;;;13.38;100.00
33404;BME280;19751;40.274;18.268;2023-04-03T10:29:59;99413.97;;;13.36;100.00
33404;BME280;19751;40.274;18.268;2023-04-03T10:32:43;99412.09;;;13.37;100.00
33404;BME280;19751;40.274;18.268;2023-04-03T10:35:46;99399.84;;;13.34;100.00
33404;BME280;19751;40.274;18.268;2023-04-03T10:38:23;99396.69;;;13.37;100.00
33404;BME280;19751;40.274;18.268;2023-04-03T10:41:11;99397.25;;;13.39;100.00
33404;BME280;19751;40.274;18.268;2023-04-03T10:46:21;99401.13;;;13.43;100.00
33404;BME280;19751;40.274;18.268;2023-04-03T10:49:13;99394.06;;;13.42;100.00
33404;BME280;19751;40.274;18.268;2023-04-03T10:51:44;99405.47;;;13.45;100.00
33404;BME280;19751;40.274;18.268;2023-04-03T10:56:57;99394.75;;;13.50;100.00
33404;BME280;19751;40.274;18.268;2023-04-03T10:59:45;99388.53;;;13.49;100.00
33404;BME280;19751;40.274;18.268;2023-04-03T11:02:23;99399.00;;;13.46;100.00
33404;BME280;19751;40.274;18.268;2023-04-03T11:04:55;99384.66;;;13.45;100.00
33404;BME280;19751;40.274;18.268;2023-04-03T11:07:26;99391.97;;;13.45;100.00
33404;BME280;19751;40.274;18.268;2023-04-03T11:10:13;99387.38;;;13.45;100.00
33404;BME280;19751;40.274;18.268;2023-04-03T11:12:44;99378.44;;;13.45;100.00
33404;BME280;19751;40.274;18.268;2023-04-03T11:15:20;99391.38;;;13.42;100.00
33404;BME280;19751;40.274;18.268;2023-04-03T11:18:04;99409.94;;;13.39;100.00
33404;BME280;19751;40.274;18.268;2023-04-03T11:20:33;99368.47;;;13.33;100.00
33404;BME280;19751;40.274;18.268;2023-04-03T11:25:49;99380.03;;;13.29;100.00
33404;BME280;19751;40.274;18.268;2023-04-03T11:28:17;99379.66;;;13.25;100.00
33404;BME280;19751;40.274;18.268;2023-04-03T11:30:45;99378.47;;;13.21;100.00
33404;BME280;19751;40.274;18.268;2023-04-03T11:33:31;99369.09;;;13.24;100.00
33404;BME280;19751;40.274;18.268;2023-04-03T11:38:46;99358.34;;;13.40;100.00
33404;BME280;19751;40.274;18.268;2023-04-03T11:41:13;99346.47;;;13.41;100.00
33404;BME280;19751;40.274;18.268;2023-04-03T11:52:13;99342.97;;;13.58;100.00
33404;BME280;19751;40.274;18.268;2023-04-03T11:54:58;99340.59;;;13.61;100.00
33404;BME280;19751;40.274;18.268;2023-04-03T11:57:47;99332.22;;;13.63;100.00
33404;BME280;19751;40.274;18.268;2023-04-03T12:08:44;99319.84;;;13.67;100.00
33404;BME280;19751;40.274;18.268;2023-04-03T12:46:45;99285.56;;;13.56;100.00
33404;BME280;19751;40.274;18.268;2023-04-03T12:48:52;99286.91;;;13.53;100.00
33404;BME280;19751;40.274;18.268;2023-04-03T12:51:35;99292.78;;;13.50;100.00
33404;BME280;19751;40.274;18.268;2023-04-03T12:54:12;99290.34;;;13.49;100.00
33404;BME280;19751;40.274;18.268;2023-04-03T12:56:38;99286.81;;;13.48;100.00
33404;BME280;19751;40.274;18.268;2023-04-03T12:59:18;99289.75;;;13.47;100.00
33404;BME280;19751;40.274;18.268;2023-04-03T13:01:56;99294.09;;;13.48;100.00
33404;BME280;19751;40.274;18.268;2023-04-03T13:04:22;99301.38;;;13.47;100.00
33404;BME280;19751;40.274;18.268;2023-04-03T13:06:49;99290.34;;;13.49;100.00
33404;BME280;19751;40.274;18.268;2023-04-03T13:09:30;99287.38;;;13.50;100.00
33404;BME280;19751;40.274;18.268;2023-04-03T13:12:13;99290.34;;;13.49;100.00
33404;BME280;19751;40.274;18.268;2023-04-03T13:14:48;99299.50;;;13.48;100.00
33404;BME280;19751;40.274;18.268;2023-04-03T13:17:16;99300.00;;;13.45;100.00
33404;BME280;19751;40.274;18.268;2023-04-03T13:19:43;99297.78;;;13.41;100.00
33404;BME280;19751;40.274;18.268;2023-04-03T13:22:36;99299.66;;;13.41;100.00
33404;BME280;19751;40.274;18.268;2023-04-03T13:25:09;99301.78;;;13.39;100.00
33404;BME280;19751;40.274;18.268;2023-04-03T13:27:36;99317.19;;;13.38;100.00
33404;BME280;19751;40.274;18.268;2023-04-03T13:30:05;99315.81;;;13.36;100.00
33404;BME280;19751;40.274;18.268;2023-04-03T13:32:32;99312.75;;;13.32;100.00
33404;BME280;19751;40.274;18.268;2023-04-03T13:34:58;99320.53;;;13.29;100.00
33404;BME280;19751;40.274;18.268;2023-04-03T13:37:31;99319.94;;;13.27;100.00
33404;BME280;19751;40.274;18.268;2023-04-03T13:42:36;99326.28;;;13.21;100.00
33404;BME280;19751;40.274;18.268;2023-04-03T13:47:44;99322.69;;;13.15;100.00
33404;BME280;19751;40.274;18.268;2023-04-03T13:50:28;99320.66;;;13.10;100.00
33404;BME280;19751;40.274;18.268;2023-04-03T13:53:00;99329.63;;;13.11;100.00
33404;BME280;19751;40.274;18.268;2023-04-03T13:55:36;99320.44;;;13.12;100.00
33404;BME280;19751;40.274;18.268;2023-04-03T13:58:21;99326.06;;;13.10;100.00
33404;BME280;19751;40.274;18.268;2023-04-03T14:00:48;99346.88;;;13.10;100.00
33404;BME280;19751;40.274;18.268;2023-04-03T14:05:47;99339.84;;;13.09;100.00
33404;BME280;19751;40.274;18.268;2023-04-03T14:08:13;99344.69;;;13.07;100.00
33404;BME280;19751;40.274;18.268;2023-04-03T14:10:39;99351.13;;;13.06;100.00
33404;BME280;19751;40.274;18.268;2023-04-03T14:13:05;99344.69;;;13.07;100.00
33404;BME280;19751;40.274;18.268;2023-04-03T14:15:32;99347.13;;;13.08;100.00
33404;BME280;19751;40.274;18.268;2023-04-03T14:17:57;99350.91;;;13.07;100.00
33404;BME280;19751;40.274;18.268;2023-04-03T14:20:25;99341.97;;;13.07;100.00
33404;BME280;19751;40.274;18.268;2023-04-03T14:22:52;99350.91;;;13.07;100.00
33404;BME280;19751;40.274;18.268;2023-04-03T14:25:19;99350.31;;;13.05;100.00
33404;BME280;19751;40.274;18.268;2023-04-03T14:27:48;99347.84;;;13.04;100.00